Harbert, Michigan
Current Conditions -  °F | °C
As of 5:15 PM on Sunday 25 Jan 2015 (Local Time) from KMGC Reporting Station
Light Snow Light Snow  
Wind Chill: 22°   Ceiling: 1100
Heat Index: 28°   Visibility: 1.7mi
Dew Point: 23°   Wind: 6mph
Humidity: 80%   Direction: 40°NE
Pressure: 29.87"   Gusts: NA
Location:  41.87°N, 86.63°W
Report Text: KMGC 252215Z AUTO 04005KT 1 3/4SM -SN BKN011 OVC021 M02/M05 A2987 RMK AO2
Loading
Personal Weather Stations






























Interactive Weather Map New forecast layout! Learn more

10-Day Weather Forecast

Advertisements
Track Severe Weather on mobile